createdAt,value
2023-03-11T00:02:22.492Z,98296.44
2023-03-11T00:04:50.155Z,98300.00
2023-03-11T00:07:17.819Z,98318.28
2023-03-11T00:09:46.760Z,98333.97
2023-03-11T00:12:14.393Z,98331.00
2023-03-11T00:14:42.015Z,98353.66
2023-03-11T00:17:09.626Z,98364.28
2023-03-11T00:19:37.262Z,98371.75
2023-03-11T00:22:04.868Z,98377.63
2023-03-11T00:24:32.449Z,98406.28
2023-03-11T00:27:01.411Z,98394.94
2023-03-11T00:29:29.098Z,98395.03
2023-03-11T00:31:56.696Z,98399.19
2023-03-11T00:34:25.676Z,98394.75
2023-03-11T00:36:54.737Z,98413.78
2023-03-11T00:39:23.201Z,98410.63
2023-03-11T00:41:51.772Z,98416.13
2023-03-11T00:44:20.735Z,98424.22
2023-03-11T00:46:48.361Z,98423.13
2023-03-11T00:49:15.974Z,98430.88
2023-03-11T00:51:44.824Z,98443.50
2023-03-11T00:54:12.414Z,98433.84
2023-03-11T00:56:41.653Z,98446.94
2023-03-11T00:59:09.388Z,98448.84
2023-03-11T01:01:38.428Z,98462.25
2023-03-11T01:04:06.394Z,98466.53
2023-03-11T01:06:44.779Z,98475.28
2023-03-11T01:09:12.971Z,98488.91
2023-03-11T01:11:40.658Z,98481.13
2023-03-11T01:14:09.228Z,98497.72
2023-03-11T01:16:38.210Z,98508.13
2023-03-11T01:19:05.804Z,98529.94
2023-03-11T01:21:33.452Z,98518.53
2023-03-11T01:24:01.096Z,98528.00
2023-03-11T01:26:28.732Z,98531.25
2023-03-11T01:28:56.873Z,98555.44
2023-03-11T01:31:24.728Z,98558.69
2023-03-11T01:33:53.862Z,98560.13
2023-03-11T01:36:21.521Z,98558.91
2023-03-11T01:38:49.223Z,98567.75
2023-03-11T01:41:16.849Z,98583.53
2023-03-11T01:43:49.270Z,98584.97
2023-03-11T01:46:21.112Z,98601.97
2023-03-11T01:48:49.913Z,98612.78
2023-03-11T01:51:20.921Z,98608.44
2023-03-11T01:53:48.628Z,98617.22
2023-03-11T01:56:16.413Z,98652.03
2023-03-11T01:58:45.592Z,98639.81
2023-03-11T02:01:13.518Z,98650.97
2023-03-11T02:03:41.982Z,98653.97
2023-03-11T02:06:10.599Z,98665.78
2023-03-11T02:08:39.676Z,98666.75
2023-03-11T02:11:09.650Z,98695.03
2023-03-11T02:13:37.276Z,98701.34
2023-03-11T02:16:05.262Z,98700.81
2023-03-11T02:18:33.142Z,98712.47
2023-03-11T02:21:03.867Z,98729.06
2023-03-11T02:23:32.535Z,98733.59
2023-03-11T02:26:02.887Z,98749.50
2023-03-11T02:28:32.720Z,98750.22
2023-03-11T02:31:00.495Z,98759.75
2023-03-11T02:33:30.069Z,98773.06
2023-03-11T02:35:58.326Z,98773.13
2023-03-11T02:38:26.458Z,98798.13
2023-03-11T02:40:56.631Z,98806.38
2023-03-11T02:43:27.270Z,98802.06
2023-03-11T02:45:56.268Z,98807.16
2023-03-11T02:48:23.992Z,98831.34
2023-03-11T02:50:51.643Z,98862.03
2023-03-11T02:53:20.381Z,98835.47
2023-03-11T02:55:48.155Z,98868.38
2023-03-11T02:58:15.750Z,98872.22
2023-03-11T03:00:43.432Z,98875.94
2023-03-11T03:03:12.629Z,98884.38
2023-03-11T03:05:41.196Z,98882.13
2023-03-11T03:08:08.963Z,98896.69
2023-03-11T03:10:36.600Z,98911.88
2023-03-11T03:13:04.364Z,98916.03
2023-03-11T03:15:32.452Z,98930.00
2023-03-11T03:18:01.246Z,98946.31
2023-03-11T03:20:30.268Z,98957.44
2023-03-11T03:23:00.774Z,98957.06
2023-03-11T03:25:31.626Z,98956.69
2023-03-11T03:28:03.186Z,98981.19
2023-03-11T03:30:34.024Z,98974.81
2023-03-11T03:33:01.664Z,98991.19
2023-03-11T03:35:31.724Z,99008.59
2023-03-11T03:38:04.221Z,99043.47
2023-03-11T03:40:32.707Z,99027.00
2023-03-11T03:43:03.937Z,99040.56
2023-03-11T03:45:33.141Z,99046.22
2023-03-11T03:48:00.866Z,99062.03
2023-03-11T03:50:34.254Z,99068.34
2023-03-11T03:53:01.940Z,99087.81
2023-03-11T03:55:29.691Z,99082.00
2023-03-11T03:57:58.740Z,99086.06
2023-03-11T04:00:30.482Z,99102.34
2023-03-11T04:03:02.034Z,99108.00
2023-03-11T04:05:39.639Z,99121.50
2023-03-11T04:08:07.310Z,99122.09
2023-03-11T04:10:35.696Z,99121.91
2023-03-11T04:13:04.293Z,99156.41
2023-03-11T04:15:32.940Z,99142.50
2023-03-11T04:18:00.904Z,99149.22
2023-03-11T04:20:28.642Z,99171.00
2023-03-11T04:22:57.739Z,99156.13
2023-03-11T04:25:25.900Z,99167.84
2023-03-11T04:27:54.206Z,99166.16
2023-03-11T04:30:22.928Z,99175.00
2023-03-11T04:32:55.350Z,99197.63
2023-03-11T04:35:23.556Z,99185.00
2023-03-11T04:37:51.917Z,99196.06
2023-03-11T04:40:21.636Z,99222.47
2023-03-11T04:42:49.714Z,99217.22
2023-03-11T04:45:18.447Z,99208.38
2023-03-11T04:47:48.447Z,99234.91
2023-03-11T04:50:16.784Z,99218.84
2023-03-11T04:52:44.867Z,99224.28
2023-03-11T04:55:13.803Z,99241.84
2023-03-11T04:57:44.419Z,99242.28
2023-03-11T05:00:15.611Z,99264.09
2023-03-11T05:02:46.709Z,99284.25
2023-03-11T05:05:14.494Z,99261.34
2023-03-11T05:07:43.687Z,99285.47
2023-03-11T05:10:13.342Z,99272.38
2023-03-11T05:12:41.007Z,99300.16
2023-03-11T05:15:10.620Z,99299.94
2023-03-11T05:17:38.416Z,99314.88
2023-03-11T05:20:07.950Z,99320.44
2023-03-11T05:22:36.426Z,99355.91
2023-03-11T05:25:04.142Z,99331.94
2023-03-11T05:27:31.800Z,99341.44
2023-03-11T05:29:59.441Z,99352.66
2023-03-11T05:32:29.983Z,99350.63
2023-03-11T05:34:57.686Z,99355.44
2023-03-11T05:37:25.324Z,99366.56
2023-03-11T05:39:54.254Z,99369.34
2023-03-11T05:42:23.192Z,99373.19
2023-03-11T05:44:53.946Z,99393.00
2023-03-11T05:47:23.261Z,99387.28
2023-03-11T05:49:52.574Z,99398.88
2023-03-11T05:52:21.161Z,99399.88
2023-03-11T05:54:50.326Z,99409.13
2023-03-11T05:57:18.636Z,99424.59
2023-03-11T05:59:46.370Z,99432.94
2023-03-11T06:02:14.799Z,99437.03
2023-03-11T06:04:42.807Z,99422.25
2023-03-11T06:07:14.780Z,99431.22
2023-03-11T06:09:44.561Z,99427.28
2023-03-11T06:12:16.923Z,99448.88
2023-03-11T06:14:55.459Z,99455.13
2023-03-11T06:17:23.277Z,99457.94
2023-03-11T06:19:51.050Z,99462.91
2023-03-11T06:22:20.188Z,99490.34
2023-03-11T06:24:47.852Z,99482.69
2023-03-11T06:27:15.536Z,99473.25
2023-03-11T06:29:43.315Z,99485.25
2023-03-11T06:32:11.218Z,99481.38
2023-03-11T06:34:38.831Z,99508.56
2023-03-11T06:37:08.043Z,99506.50
2023-03-11T06:39:37.218Z,99503.56
2023-03-11T06:42:05.410Z,99509.03
2023-03-11T06:44:33.026Z,99524.06
2023-03-11T06:47:00.972Z,99529.38
2023-03-11T06:49:29.574Z,99546.97
2023-03-11T06:51:57.254Z,99546.63
2023-03-11T06:54:25.222Z,99559.56
2023-03-11T06:56:54.428Z,99572.00
2023-03-11T06:59:24.855Z,99567.75
2023-03-11T07:01:53.566Z,99572.03
2023-03-11T07:04:21.517Z,99581.44
2023-03-11T07:06:49.801Z,99582.28
2023-03-11T07:09:25.054Z,99563.41
2023-03-11T07:11:54.556Z,99603.34
2023-03-11T07:14:29.485Z,99605.59
2023-03-11T07:16:58.339Z,99609.31
2023-03-11T07:19:41.009Z,99623.50
2023-03-11T07:22:08.657Z,99644.16
2023-03-11T07:24:36.494Z,99626.41
2023-03-11T07:27:05.799Z,99639.38
2023-03-11T07:29:33.598Z,99641.97
2023-03-11T07:32:01.316Z,99663.22
2023-03-11T07:34:28.970Z,99659.97
2023-03-11T07:36:56.579Z,99668.25
2023-03-11T07:39:24.261Z,99667.09
2023-03-11T07:41:51.904Z,99668.31
2023-03-11T07:44:21.121Z,99687.72
2023-03-11T07:46:48.776Z,99684.84
2023-03-11T07:49:16.625Z,99683.56
2023-03-11T07:51:44.866Z,99705.50
2023-03-11T07:54:12.759Z,99720.91
2023-03-11T07:56:40.505Z,99708.13
2023-03-11T07:59:08.212Z,99718.72
2023-03-11T08:01:40.617Z,99738.28
2023-03-11T08:04:09.184Z,99734.16
2023-03-11T08:06:37.559Z,99727.91
2023-03-11T08:09:05.892Z,99745.25
2023-03-11T08:11:33.638Z,99750.56
2023-03-11T08:14:01.255Z,99755.59
2023-03-11T08:16:29.314Z,99786.78
2023-03-11T08:18:58.411Z,99815.53
2023-03-11T08:21:26.628Z,99758.34
2023-03-11T08:23:54.361Z,99799.41
2023-03-11T08:26:22.634Z,99790.81
2023-03-11T08:28:50.647Z,99785.47
2023-03-11T08:31:19.033Z,99789.56
2023-03-11T08:33:49.959Z,99811.88
2023-03-11T08:36:19.299Z,99809.53
2023-03-11T08:38:46.976Z,99802.50
2023-03-11T08:41:14.620Z,99819.13
2023-03-11T08:43:42.899Z,99820.81
2023-03-11T08:47:39.131Z,99835.97
2023-03-11T08:50:07.692Z,99836.81
2023-03-11T08:52:38.378Z,99830.50
2023-03-11T08:55:08.865Z,99844.75
2023-03-11T08:57:37.943Z,99847.50
2023-03-11T09:00:07.209Z,99846.03
2023-03-11T09:02:38.288Z,99862.63
2023-03-11T09:05:06.897Z,99857.44
2023-03-11T09:07:34.693Z,99860.53
2023-03-11T09:10:02.588Z,99874.00
2023-03-11T09:12:33.060Z,99877.53
2023-03-11T09:15:00.930Z,99885.25
2023-03-11T09:17:28.792Z,99890.84
2023-03-11T09:19:58.518Z,99876.94
2023-03-11T09:22:26.551Z,99886.56
2023-03-11T09:24:54.402Z,99892.47
2023-03-11T09:27:22.558Z,99876.81
2023-03-11T09:29:50.454Z,99889.56
2023-03-11T09:32:18.456Z,99892.56
2023-03-11T09:34:46.421Z,99894.31
2023-03-11T09:37:15.633Z,99899.50
2023-03-11T09:39:43.403Z,99897.34
